地図

経路データ

SID SEASON NUMBER BASIN SUBBASIN NAME ISO_TIME NATURE LAT LON WMO_WIND WMO_PRES WMO_AGENCY TRACK_TYPE DIST2LAND LANDFALL IFLAG USA_AGENCY USA_ATCF_ID USA_LAT USA_LON USA_RECORD USA_STATUS USA_WIND USA_PRES USA_SSHS USA_R34_NE USA_R34_SE USA_R34_SW USA_R34_NW USA_R50_NE USA_R50_SE USA_R50_SW USA_R50_NW USA_R64_NE USA_R64_SE USA_R64_SW USA_R64_NW USA_POCI USA_ROCI USA_RMW USA_EYE TOKYO_LAT TOKYO_LON TOKYO_GRADE TOKYO_WIND TOKYO_PRES TOKYO_R50_DIR TOKYO_R50_LONG TOKYO_R50_SHORT TOKYO_R30_DIR TOKYO_R30_LONG TOKYO_R30_SHORT TOKYO_LAND CMA_LAT CMA_LON CMA_CAT CMA_WIND CMA_PRES HKO_LAT HKO_LON HKO_CAT HKO_WIND HKO_PRES NEWDELHI_LAT NEWDELHI_LON NEWDELHI_GRADE NEWDELHI_WIND NEWDELHI_PRES NEWDELHI_CI NEWDELHI_DP NEWDELHI_POCI REUNION_LAT REUNION_LON REUNION_TYPE REUNION_WIND REUNION_PRES REUNION_TNUM REUNION_CI REUNION_RMW REUNION_R34_NE REUNION_R34_SE REUNION_R34_SW REUNION_R34_NW REUNION_R50_NE REUNION_R50_SE REUNION_R50_SW REUNION_R50_NW REUNION_R64_NE REUNION_R64_SE REUNION_R64_SW REUNION_R64_NW BOM_LAT BOM_LON BOM_TYPE BOM_WIND BOM_PRES BOM_TNUM BOM_CI BOM_RMW BOM_R34_NE BOM_R34_SE BOM_R34_SW BOM_R34_NW BOM_R50_NE BOM_R50_SE BOM_R50_SW BOM_R50_NW BOM_R64_NE BOM_R64_SE BOM_R64_SW BOM_R64_NW BOM_ROCI BOM_POCI BOM_EYE BOM_POS_METHOD BOM_PRES_METHOD NADI_LAT NADI_LON NADI_CAT NADI_WIND NADI_PRES WELLINGTON_LAT WELLINGTON_LON WELLINGTON_WIND WELLINGTON_PRES DS824_LAT DS824_LON DS824_STAGE DS824_WIND DS824_PRES TD9636_LAT TD9636_LON TD9636_STAGE TD9636_WIND TD9636_PRES TD9635_LAT TD9635_LON TD9635_WIND TD9635_PRES TD9635_ROCI NEUMANN_LAT NEUMANN_LON NEUMANN_CLASS NEUMANN_WIND NEUMANN_PRES MLC_LAT MLC_LON MLC_CLASS MLC_WIND MLC_PRES USA_GUST BOM_GUST BOM_GUST_PER REUNION_GUST REUNION_GUST_PER USA_SEAHGT USA_SEARAD_NE USA_SEARAD_SE USA_SEARAD_SW USA_SEARAD_NW STORM_SPEED STORM_DIR
2020222N26149 2020 53 WP MM NOT_NAMED 2020-08-09 00:00:00 TS 25.7500 148.850 main 1325 1299 O_O___________ jtwc_wp WP062020 25.9000 148.900 TD 25 1005 -1 25.6000 148.800 1 25 1014 5 295
2020222N26149 2020 53 WP MM NOT_NAMED 2020-08-09 03:00:00 TS 25.8589 148.598 main 1299 1288 P_P___________ WP062020 25.9477 148.638 TD 30 1004 -1 25.7701 148.558 1 25 1014 5 294
2020222N26149 2020 53 WP MM NOT_NAMED 2020-08-09 06:00:00 TS 25.9500 148.350 main 1273 1261 O_O___________ jtwc_wp WP062020 26.0000 148.400 TS 35 1004 0 1006 80 30 25.9000 148.300 1 25 1014 5 289
2020222N26149 2020 53 WP MM NOT_NAMED 2020-08-09 09:00:00 TS 26.0111 148.101 main 1261 1245 P_P___________ WP062020 26.0572 148.188 TS 40 1002 0 1011 85 30 25.9649 148.015 1 27 1013 5 281
2020222N26149 2020 53 WP MM NOT_NAMED 2020-08-09 12:00:00 TS 26.0500 147.800 main 1236 1214 O_O___________ jtwc_wp WP062020 26.1000 147.900 TS 45 1000 0 25 30 25 25 1016 90 30 26.0000 147.700 1 29 1012 6 276
2020222N26149 2020 53 WP MM NOT_NAMED 2020-08-09 15:00:00 TS 26.0789 147.390 main 1214 1193 P_P___________ WP062020 26.1004 147.415 TS 42 1001 0 25 30 25 25 1016 95 25 26.0574 147.365 1 29 1012 8 274
2020222N26149 2020 53 WP MM NOT_NAMED 2020-08-09 18:00:00 TS 26.1000 146.950 main 1193 1171 O_O___________ jtwc_wp WP062020 26.1000 146.900 TS 40 1003 0 25 30 25 25 1016 100 20 26.1000 147.000 1 29 1012 7 274
2020222N26149 2020 53 WP MM NOT_NAMED 2020-08-09 21:00:00 TS 26.1247 146.579 main 1171 1151 P_P___________ WP062020 26.1496 146.543 TS 37 1004 0 30 35 30 30 1015 100 25 26.0999 146.615 1 29 1012 7 274
2020222N26149 2020 53 WP MM NOT_NAMED 2020-08-10 00:00:00 TS 26.1500 146.200 main 1141 1122 O_O___________ jtwc_wp WP062020 26.2000 146.200 TS 35 1006 0 35 40 35 35 1015 100 30 26.1000 146.200 1 29 1012 7 274
2020222N26149 2020 53 WP MM NOT_NAMED 2020-08-10 03:00:00 TS 26.1711 145.776 main 1122 1099 P_P___________ WP062020 26.1999 145.772 TS 32 1006 -1 1014 117 35 26.1422 145.780 1 29 1012 8 274
2020222N26149 2020 53 WP MM NOT_NAMED 2020-08-10 06:00:00 TS 26.2000 145.300 main 1099 1077 O_O___________ jtwc_wp WP062020 26.2000 145.300 TD 30 1007 -1 1014 135 40 26.2000 145.300 1 29 1012 9 275
2020222N26149 2020 53 WP MM NOT_NAMED 2020-08-10 09:00:00 TS 26.2422 144.784 main 1077 1043 P_P___________ WP062020 26.2345 144.837 TD 30 1007 -1 1014 125 40 26.2499 144.730 1 29 1012 10 275
2020222N26149 2020 53 WP MM NOT_NAMED 2020-08-10 12:00:00 TS 26.2889 144.189 main 1043 1019 O_OO__________ jtwc_wp WP062020 26.3000 144.300 TD 30 1008 -1 1015 115 40 26.3000 144.100 1 29 1012 26.2000 144.100 TD 25 1010 12 275
2020222N26149 2020 53 WP MM NOT_NAMED 2020-08-10 15:00:00 TS 26.3422 143.495 main 1019 987 P_PP__________ WP062020 26.4001 143.630 TD 27 1008 -1 1014 112 40 26.3423 143.457 1 27 1012 26.2262 143.300 TD 25 1010 13 275
2020222N26149 2020 53 WP MM NOT_NAMED 2020-08-10 18:00:00 TS 26.4091 142.782 main 987 960 O_OO__________ jtwc_wp WP062020 26.5000 142.900 TD 25 1009 -1 1013 110 40 26.4000 142.800 1 25 1012 26.3000 142.600 TD 25 1010 12 278
2020222N26149 2020 53 WP MM NOT_NAMED 2020-08-10 21:00:00 TS 26.5073 142.120 main 957 931 P_PP__________ WP062020 26.5651 142.170 TD 25 1010 -1 1014 117 40 26.5075 142.128 1 25 1012 26.4494 142.063 TD 25 1010 11 280
2020222N26149 2020 53 WP MM NOT_NAMED 2020-08-11 00:00:00 TS 26.6000 141.533 main 929 913 O_OO__________ jtwc_wp WP062020 26.6000 141.500 TD 25 1011 -1 1015 125 40 26.6000 141.500 1 25 1012 26.6000 141.600 TD 25 1010 10 278
2020222N26149 2020 53 WP MM NOT_NAMED 2020-08-11 03:00:00 TS 26.6386 141.028 main 908 887 P_PP__________ WP062020 26.6070 140.970 TD 25 1010 -1 1014 125 40 26.6219 140.992 1 25 1012 26.6871 141.123 TD 25 1010 9 272
2020222N26149 2020 53 WP MM NOT_NAMED 2020-08-11 06:00:00 TS 26.6333 140.533 main 882 859 O_OO__________ jtwc_wp WP062020 26.6000 140.500 TD 25 1009 -1 1013 125 40 26.6000 140.500 1 25 1012 26.7000 140.600 TD 25 1010 9 267
2020222N26149 2020 53 WP MM NOT_NAMED 2020-08-11 09:00:00 TS 26.5903 139.992 main 859 842 P_PP__________ WP062020 26.6065 140.060 TD 25 1008 -1 1013 125 32 26.5497 139.930 1 25 1012 26.6148 139.987 TD 25 1010 10 265
2020222N26149 2020 53 WP MM NOT_NAMED 2020-08-11 12:00:00 TS 26.5333 139.367 main 844 815 O_OO__________ jtwc_wp WP062020 26.6000 139.500 TD 25 1008 -1 1013 125 25 26.5000 139.300 1 25 1012 26.5000 139.300 TD 25 1010 13 266
2020222N26149 2020 53 WP MM NOT_NAMED 2020-08-11 15:00:00 TS 26.5130 138.584 main 815 793 P_PP__________ WP062020 26.5664 138.600 TD 25 1008 -1 1013 122 25 26.5150 138.608 1 25 1012 26.4577 138.543 TD 25 1010 14 267
2020222N26149 2020 53 WP MM NOT_NAMED 2020-08-11 18:00:00 TS 26.4667 137.800 main 793 791 O_OO__________ jtwc_wp WP062020 26.5000 137.700 TD 25 1009 -1 1013 120 25 26.5000 137.900 1 25 1012 26.4000 137.800 TD 25 1010 13 263
2020222N26149 2020 53 WP MM NOT_NAMED 2020-08-11 21:00:00 TS 26.3627 137.189 main 792 774 P_PP__________ WP062020 26.4288 137.163 TD 25 1009 -1 1013 127 30 26.3797 137.235 1 25 1012 26.2795 137.170 TD 25 1010 11 256
2020222N26149 2020 53 WP MM NOT_NAMED 2020-08-12 00:00:00 TS 26.2000 136.633 main 769 753 O_OO__________ jtwc_wp WP062020 26.3000 136.700 TD 25 1010 -1 1013 135 35 26.2000 136.600 1 25 1012 26.1000 136.600 TD 25 1010 11 250
2020222N26149 2020 53 WP MM NOT_NAMED 2020-08-12 03:00:00 TS 25.9814 136.041 main 750 741 P_PP__________ WP062020 26.0502 136.057 TD 25 1009 -1 1013 135 35 26.0147 135.993 1 25 1012 25.8793 136.073 TD 22 1011 12 247
2020222N26149 2020 53 WP MM NOT_NAMED 2020-08-12 06:00:00 TS 25.7333 135.433 main 746 734 O_OO__________ jtwc_wp WP062020 25.8000 135.400 TD 25 1009 -1 1013 135 35 25.8000 135.400 1 25 1012 25.6000 135.500 LW 20 1012 12 247
2020222N26149 2020 53 WP MM NOT_NAMED 2020-08-12 09:00:00 TS 25.5046 134.820 main 733 722 P_PP__________ WP062020 25.7290 134.882 TD 25 1008 -1 1013 135 37 25.5573 134.800 1 25 1012 25.2275 134.779 LW 20 1012 13 247
2020222N26149 2020 53 WP MM NOT_NAMED 2020-08-12 12:00:00 TS 25.2364 134.155 main 732 717 O_OO__________ jtwc_wp WP062020 25.6000 134.300 TD 25 1007 -1 1013 135 40 25.3000 134.200 1 25 1012 24.9000 134.000 LW 20 1012 13 248
2020222N26149 2020 53 WP MM NOT_NAMED 2020-08-12 15:00:00 TS 25.0015 133.471 main 723 720 P_PP__________ WP062020 25.2292 133.512 TD 25 1008 -1 1013 130 40 25.0647 133.608 1 25 1012 24.7655 133.261 LW 20 1012 13 249
2020222N26149 2020 53 WP MM NOT_NAMED 2020-08-12 18:00:00 TS 24.7500 132.767 main 722 722 O_OO__________ jtwc_wp WP062020 24.7000 132.600 TD 25 1009 -1 1013 125 40 24.8000 133.000 1 25 1012 24.7000 132.500 LW 20 1012 13 248
2020222N26149 2020 53 WP MM NOT_NAMED 2020-08-12 21:00:00 TS 24.5138 132.139 main 738 738 __PO__________ WP062020 TD -5 24.4706 132.359 1 25 1012 24.6000 131.700 LW 20 1012 12 236
2020222N26149 2020 53 WP MM NOT_NAMED 2020-08-13 00:00:00 TS 24.1000 131.700 main 776 __O___________ -5 24.1000 131.700 1 25 1012 12 224

デジタル台風データ・検索

IBTrACS Databaseについて

本データベースは、米国NOAAが公開する1842年以降の世界の熱帯低気圧のベストトラックデータアーカイブInternational Best Track Archive for Climate Stewardship (IBTrACS)を、ウェブで閲覧しやすい形式に変換したものです。

最終更新日:2023-02-02